EBBELIRA

Guest
Details From EBBE - Beauvechain
To LIRA - Ciampino
Flight Number -
Tags Generated
Created
Modified
Stats Distance 627 nm / 1,161 km
Max Altitude 0 ft / 0 m
Waypoints 4
Social Downloads 0
Likes 0
Share VATSIM

Download

Looking for another format? Having issues loading an existing format? Contact us
Advertisement - Login to hide

Notes

Generated

Route

EBBE LUKOM R1815 LIRA

ID Type Via Altitude Latitude Longitude Leg Dist Tot Dist Heading (true) Name
O EBBE APT - 0 ft / 0 m 50.74692˚ 4.75986˚ - 0 nm - -
LUKOM FIX - 0 ft / 0 m 46.58500˚ 8.75861˚ 295 nm 295 nm 146° / 149° -
R1815 FIX - 0 ft / 0 m 41.80806˚ 12.58883˚ 330 nm 626 nm 149° / 151° -
O LIRA APT - 0 ft / 0 m 41.80806˚ 12.58883˚ 0 nm 626 nm 0° / 180° -

Altitude Profile

Advertisement - Login to hide

Weather


0- 5 10 15 20 25 30 35+ Temperature / ° C

Clouds and Precipitation
Forecast for 2017-12-18 00:00 UTC. Updated 43 minutes ago

Ground ~20,000 ft ~40,000 ft Winds

EBBE

Details ICAO EBBE
Name Beauvechain
Region Belgium
Timezone Europe/Brussels (UTC+1.0)
Stats Elevation 341 ft / 104 m (AMSL)
Location 50.756950° 4.769359°
Runways 2
Magnetic Variation 1.217° E

METAR

EBBE 172355Z AUTO 21016KT 3700 -RA BKN006/// BKN010/// OVC016/// 03/02 Q1018 YLO

Decode

TAF

Not found

Departure Runways

ID Width Length Bearing (true) Bearing (mag) Surface Threshold Offset Overrun Length
04L 148 ft / 45 m 9,154 ft / 2,790 m 38.81° 37.59° Asphalt 213 ft / 65 m 965 ft / 294 m
04R 75 ft / 23 m 7,599 ft / 2,316 m 38.85° 37.63° Asphalt 0 ft / 0 m 0 ft / 0 m
22L 75 ft / 23 m 7,599 ft / 2,316 m 218.86° 217.64° Asphalt 0 ft / 0 m 0 ft / 0 m
22R 148 ft / 45 m 9,154 ft / 2,790 m 218.83° 217.61° Asphalt 1,145 ft / 349 m 0 ft / 0 m

LIRA

Details ICAO LIRA (CIA)
Name CIAMPINO
Region Italy
Timezone Europe/Rome (UTC+1.0)
Stats Elevation 427 ft / 130 m (AMSL)
Location 41.799228° 12.594917°
Runways 1
Magnetic Variation 3.059° E

METAR

LIRA 172350Z 03005KT CAVOK 02/M04 Q1020

Decode

TAF

TAF LIRA 172300Z 1800/1824 02008KT 9999 FEW030

Decode

Destination Runways

ID Width Length Bearing (true) Bearing (mag) Surface Threshold Offset Overrun Length
15 154 ft / 47 m 7,246 ft / 2,209 m 152.79° 149.73° Asphalt 0 ft / 0 m 0 ft / 0 m
33 154 ft / 47 m 7,246 ft / 2,209 m 332.80° 329.74° Asphalt 0 ft / 0 m 0 ft / 0 m

Approach Navaids

Runway Type Ident Frequency Range Bearing (true) Bearing (mag) Slope Elevation
15 Localiser CIA 109.90 MHz 18 nm / 33 km 152.81° 149.75° - 426 ft / 130 m (AMSL)
15 Glidescope CIA 109.90 MHz 10 nm / 19 km 152.79° 149.74° 3.00° 384 ft / 117 m (AMSL)